Historyczne dane pomiarowe

Dodano dane terminowe – wersja testowa.

Dane z okresu 1951-2019

Wersja bazy: 1.34 [2019-03-16, lista zmian], aktualizacja planowana na 2019-04-15

Dane meteo z obszaru Polski uzyskane na podstawie danych udostępnionych przez Instytut Meteorologii i Gospodarki Wodnej – Państwowy Instytut Badawczy.

 

Wybierz Datę:    

       

TemperaturaWilgotnośćZachmurzenieWiatrCiśnienieWidzialnośćZjawiska
 Data    tng td wb rh cc ccl cl cm ch dir g1 g2 mslp ppp      
2002-09-17 00:00:00 5.5--- 4.6 5.194wxwx1wx--1010.4 987.7 0.0---wx
2002-09-17 01:00:00 4.9--- 4.0 4.594wxwx2wx--1010.4 987.6----wx
2002-09-17 02:00:00 4.5--- 3.8 4.295wxwx2wx--1010.1 987.3----wx
2002-09-17 03:00:00 4.0--- 3.3 3.795wxwx2wx--1010.1 987.3----wx
2002-09-17 04:00:00 5.1--- 4.5 4.896wxwxwx1wx--1010.1 987.3----wx
2002-09-17 05:00:00 5.9--- 5.5 5.797wxwxwxwx2wx--1010.0 987.3----wx
2002-09-17 06:00:00 6.9--- 6.3 6.696wxwxwxwx2wx--1009.9 987.3 0.0---wx
2002-09-17 07:00:00 10.2--- 9.1 9.693wxwxwxwx3wx--1009.8 987.5----wx
2002-09-17 08:00:00 12.5--- 8.8 10.578wxwxwxwxwx2wx--1009.5 987.3----wx
2002-09-17 09:00:00 13.2--- 7.5 10.268wxwxwxwx5wx--1009.0 986.9----wx
2002-09-17 10:00:00 14.9--- 7.2 10.860wxwxwx6wx--1008.8 986.8----wx
2002-09-17 11:00:00 14.9--- 6.7 10.658wxwxwx5wx--1008.8 986.8----wx
2002-09-17 12:00:00 13.5--- 7.7 10.468wxwxwx7wx--1008.9 986.8 0.0---wx
2002-09-17 13:00:00 13.1--- 9.3 11.078wxwxwx5wx--1008.6 986.5----wx
2002-09-17 14:00:00 12.3--- 6.5 9.368wxwxwx6wx--1008.7 986.5----wx
2002-09-17 15:00:00 11.9--- 8.3 10.079wxwxwx3wx--1008.2 986.0----wxw1
2002-09-17 16:00:00 12.4--- 8.7 10.478wxwxwx3wx--1007.8 985.7----wx
2002-09-17 17:00:00 12.1--- 9.3 10.683wxwxwx5wx--1007.8 985.6----wx
2002-09-17 18:00:00 11.6--- 10.0 10.790wxwxwx5wx--1007.8 985.6 0.1---wxw1
2002-09-17 19:00:00 11.3--- 10.4 10.894wxwxwx4wx--1007.4 985.2----wx
2002-09-17 20:00:00 11.7--- 10.8 11.294wxwxwx5wx--1007.1 984.9----wx
2002-09-17 21:00:00 11.9--- 11.0 11.494wxwxwx4wx--1006.9 984.8----wx
2002-09-17 22:00:00 11.9--- 11.0 11.494wxwxwx4wx--1006.5 984.4----wx
2002-09-17 23:00:00 11.7--- 10.8 11.294wxwxwx4wx--1006.2 984.1----wx

 

Źródłem pochodzenia danych jest Instytut Meteorologii i Gospodarki Wodnej – Państwowy Instytut Badawczy. Dane Instytutu Meteorologii i Gospodarki Wodnej – Państwowego Instytutu Badawczego zostały przetworzone.

Dane źródłowe można odnaleźć na stronie https://dane.imgw.pl